Time;durP1;ratioP1;P1;durP2;ratioP2;P2;SDS_P1;SDS_P2;PMS_P1;PMS_P2;Temp;Humidity;BMP_temperature;BMP_pressure;BME280_temperature;BME280_humidity;BME280_pressure;Samples;Min_cycle;Max_cycle;Signal;HPM_P1;HPM_P2
2021/05/07 07:42:20;;;;;;;18.02;14.10;;;19.80;83.90;;;;;;5088253;27;763596;-85
2021/05/07 07:44:46;;;;;;;22.00;16.58;;;19.80;84.70;;;;;;5090992;28;20123;-85
2021/05/07 07:47:12;;;;;;;25.05;19.13;;;19.80;84.70;;;;;;5090975;28;20032;-86
2021/05/07 07:49:37;;;;;;;23.48;19.08;;;20.00;84.40;;;;;;5091105;28;20020;-86
2021/05/07 07:52:03;;;;;;;29.20;22.63;;;20.10;84.00;;;;;;5090189;28;20078;-88
2021/05/07 07:54:29;;;;;;;30.20;23.67;;;20.10;83.50;;;;;;5087543;28;20031;-89
2021/05/07 07:56:55;;;;;;;34.35;25.67;;;20.20;83.80;;;;;;5089320;28;20458;-89
2021/05/07 07:59:20;;;;;;;36.50;27.85;;;20.40;83.20;;;;;;5089136;28;20035;-88
2021/05/07 08:01:46;;;;;;;35.92;27.50;;;20.40;82.90;;;;;;5088783;28;20107;-89
2021/05/07 08:04:16;;;;;;;41.30;31.83;;;20.50;82.90;;;;;;5089253;28;20032;-88
2021/05/07 08:06:42;;;;;;;44.72;33.88;;;20.60;82.80;;;;;;5088919;28;20086;-89
2021/05/07 08:09:07;;;;;;;43.30;33.85;;;20.60;82.50;;;;;;5090397;28;20421;-88
2021/05/07 08:11:33;;;;;;;45.85;33.83;;;20.70;82.20;;;;;;5090982;28;20067;-87
2021/05/07 08:13:58;;;;;;;47.15;35.63;;;20.70;82.20;;;;;;5089123;28;20036;-87
2021/05/07 08:16:24;;;;;;;48.28;35.90;;;20.80;82.10;;;;;;5090209;28;20094;-87
2021/05/07 08:18:50;;;;;;;45.20;34.63;;;20.80;82.40;;;;;;5090915;28;20099;-87
2021/05/07 08:21:26;;;;;;;48.75;37.28;;;20.80;81.70;;;;;;5089538;28;20115;-87
2021/05/07 08:23:52;;;;;;;50.28;38.47;;;20.90;81.50;;;;;;5089683;28;20039;-87
2021/05/07 08:26:19;;;;;;;49.72;36.90;;;20.90;81.20;;;;;;5089153;28;20028;-87
2021/05/07 08:29:03;;;;;;;50.78;37.38;;;20.90;81.20;;;;;;5090737;28;20029;-88
2021/05/07 08:31:29;;;;;;;47.28;35.65;;;20.90;81.30;;;;;;5090236;28;20033;-87
2021/05/07 08:33:55;;;;;;;46.17;34.10;;;20.90;81.20;;;;;;5089094;28;20381;-87
2021/05/07 08:36:20;;;;;;;46.25;33.70;;;20.90;80.90;;;;;;5090426;28;20032;-87
2021/05/07 08:38:46;;;;;;;44.40;33.72;;;20.90;80.80;;;;;;5072159;28;20032;-87
2021/05/07 08:41:12;;;;;;;45.15;33.60;;;20.90;80.50;;;;;;5088550;28;20067;-87
2021/05/07 08:43:37;;;;;;;45.20;33.35;;;20.90;80.50;;;;;;5088876;28;20055;-87
2021/05/07 08:46:04;;;;;;;37.65;29.52;;;20.90;80.40;;;;;;5088723;28;20087;-87
2021/05/07 08:48:31;;;;;;;43.00;32.50;;;20.90;80.50;;;;;;5090150;28;20028;-87
2021/05/07 08:50:57;;;;;;;41.78;30.17;;;20.90;80.50;;;;;;5090020;28;20024;-87
2021/05/07 08:53:23;;;;;;;40.35;28.77;;;21.00;80.40;;;;;;5077194;28;20425;-87
2021/05/07 08:55:49;;;;;;;41.00;29.90;;;21.00;80.20;;;;;;5058166;28;20040;-87
2021/05/07 08:58:16;;;;;;;39.83;29.23;;;21.00;80.00;;;;;;5076484;28;20028;-87
2021/05/07 09:00:42;;;;;;;37.40;27.67;;;21.00;80.00;;;;;;5075139;28;20031;-87
2021/05/07 09:03:10;;;;;;;38.28;28.15;;;21.00;79.70;;;;;;5075915;28;20119;-87
2021/05/07 09:05:37;;;;;;;35.60;27.35;;;21.00;80.30;;;;;;5074964;28;20024;-87
2021/05/07 09:08:07;;;;;;;38.33;27.60;;;21.00;79.90;;;;;;5075034;28;20031;-87
2021/05/07 09:10:38;;;;;;;34.92;26.25;;;21.00;79.90;;;;;;5076218;28;20032;-87
2021/05/07 09:13:06;;;;;;;35.47;26.98;;;21.00;79.80;;;;;;5074766;28;20028;-87
2021/05/07 09:15:47;;;;;;;34.40;25.90;;;21.00;79.70;;;;;;5075368;28;20043;-87
2021/05/07 09:18:15;;;;;;;34.63;25.67;;;21.00;79.60;;;;;;5076288;28;20223;-87
2021/05/07 09:20:49;;;;;;;34.83;26.63;;;21.00;79.50;;;;;;5074627;28;20054;-87
2021/05/07 09:23:16;;;;;;;33.20;25.00;;;21.00;79.50;;;;;;5057920;28;20125;-87
2021/05/07 09:25:46;;;;;;;30.67;23.33;;;21.00;79.50;;;;;;5074380;28;20033;-87
2021/05/07 09:28:17;;;;;;;30.40;23.60;;;21.00;79.50;;;;;;5075443;28;20359;-87
2021/05/07 09:30:44;;;;;;;29.65;22.38;;;21.00;79.50;;;;;;5076155;28;20035;-87
2021/05/07 09:33:14;;;;;;;28.15;21.58;;;21.00;79.40;;;;;;5075936;28;20038;-87
2021/05/07 09:35:41;;;;;;;30.33;22.65;;;20.90;79.30;;;;;;5076039;28;20028;-87
2021/05/07 09:38:09;;;;;;;27.13;21.08;;;20.90;79.20;;;;;;5075337;28;20036;-87
2021/05/07 09:40:36;;;;;;;27.33;20.90;;;20.90;79.30;;;;;;5078586;28;20055;-87
2021/05/07 09:43:07;;;;;;;26.88;20.27;;;20.90;79.30;;;;;;5095662;28;20098;-87
2021/05/07 09:45:35;;;;;;;29.83;20.73;;;21.00;79.30;;;;;;5095760;28;20023;-87
2021/05/07 09:48:00;;;;;;;25.67;20.13;;;21.00;79.30;;;;;;5077023;28;20386;-87
2021/05/07 09:50:37;;;;;;;27.38;20.05;;;20.90;79.10;;;;;;5095606;28;20035;-87
2021/05/07 09:53:13;;;;;;;26.83;20.40;;;20.90;79.10;;;;;;5095162;28;20099;-87
2021/05/07 09:55:40;;;;;;;25.75;19.67;;;21.00;79.20;;;;;;5095593;28;20380;-87
2021/05/07 09:58:06;;;;;;;24.63;19.40;;;21.00;79.30;;;;;;5095537;28;20068;-87
2021/05/07 10:00:32;;;;;;;24.55;18.70;;;21.00;79.20;;;;;;5077336;28;20039;-86
2021/05/07 10:02:58;;;;;;;26.85;19.98;;;21.00;79.20;;;;;;5095342;28;20035;-87
2021/05/07 10:05:24;;;;;;;25.20;18.60;;;21.00;79.20;;;;;;5094370;28;20101;-87
2021/05/07 10:07:51;;;;;;;24.63;18.40;;;21.00;79.20;;;;;;5077621;28;20056;-87
2021/05/07 10:10:17;;;;;;;24.05;18.30;;;21.00;79.20;;;;;;5095223;28;20173;-87
2021/05/07 10:12:46;;;;;;;22.58;17.48;;;21.00;79.00;;;;;;5095546;28;20101;-87
2021/05/07 10:15:12;;;;;;;22.33;17.58;;;21.00;78.90;;;;;;5076884;28;20042;-87
2021/05/07 10:17:49;;;;;;;22.15;16.60;;;20.90;78.80;;;;;;5095376;28;20024;-86
2021/05/07 10:20:26;;;;;;;20.23;16.45;;;20.90;78.80;;;;;;5060235;28;20024;-86
2021/05/07 10:22:52;;;;;;;22.17;16.85;;;21.00;78.90;;;;;;5095327;28;20065;-87
2021/05/07 10:25:20;;;;;;;20.80;16.33;;;20.90;78.90;;;;;;5076933;28;20036;-87
2021/05/07 10:27:52;;;;;;;17.75;14.05;;;20.90;78.80;;;;;;5077519;28;20035;-87
2021/05/07 10:30:23;;;;;;;18.00;15.32;;;21.00;78.90;;;;;;5094766;28;20028;-86
2021/05/07 10:33:04;;;;;;;17.70;14.57;;;21.00;78.80;;;;;;5094844;28;20028;-87
2021/05/07 10:35:39;;;;;;;17.50;13.70;;;21.00;78.80;;;;;;5094822;28;20020;-86
2021/05/07 10:38:09;;;;;;;17.38;13.57;;;20.90;78.80;;;;;;5094730;28;20089;-86
2021/05/07 10:40:36;;;;;;;17.60;13.82;;;20.90;78.80;;;;;;5094310;28;20056;-86
2021/05/07 10:43:02;;;;;;;16.55;13.40;;;21.00;78.70;;;;;;5094800;28;20074;-87
2021/05/07 10:45:45;;;;;;;18.00;13.25;;;21.00;78.60;;;;;;5094588;28;20029;-87
2021/05/07 10:48:25;;;;;;;15.43;12.27;;;21.00;78.50;;;;;;5061139;28;20032;-87
2021/05/07 10:50:57;;;;;;;16.15;12.60;;;21.00;78.50;;;;;;5094423;28;20024;-86
2021/05/07 10:53:35;;;;;;;15.45;12.60;;;20.90;78.60;;;;;;5094451;28;20027;-86
2021/05/07 10:56:12;;;;;;;16.05;12.15;;;21.00;78.50;;;;;;5076790;28;20034;-87
2021/05/07 10:58:38;;;;;;;14.15;11.10;;;21.00;78.40;;;;;;5094057;28;20027;-86
2021/05/07 11:01:28;;;;;;;15.43;11.57;;;21.00;78.40;;;;;;5093838;28;20036;-86
2021/05/07 11:04:03;;;;;;;12.93;10.45;;;21.00;78.30;;;;;;5076156;28;20089;-87
2021/05/07 11:06:36;;;;;;;;;;;21.00;78.20;;;;;;5094627;28;20028;-86
2021/05/07 11:09:22;;;;;;;12.60;10.20;;;20.90;78.10;;;;;;5094019;28;19904;-87
2021/05/07 11:11:52;;;;;;;12.93;9.93;;;20.90;78.00;;;;;;5075461;28;20039;-87
2021/05/07 11:14:20;;;;;;;12.68;10.30;;;20.90;78.10;;;;;;5093891;28;20461;-87
2021/05/07 11:16:47;;;;;;;13.25;10.32;;;20.90;78.10;;;;;;5093954;28;20032;-87
2021/05/07 11:19:29;;;;;;;11.05;9.50;;;20.90;78.10;;;;;;5059749;28;20058;-87
2021/05/07 11:21:58;;;;;;;11.52;9.18;;;20.90;78.00;;;;;;5093527;28;20411;-87
2021/05/07 11:24:42;;;;;;;10.13;9.02;;;20.90;78.50;;;;;;5093916;28;20047;-87
2021/05/07 11:27:21;;;;;;;11.10;9.10;;;20.90;77.90;;;;;;5075942;28;20558;-87
2021/05/07 11:29:46;;;;;;;10.57;8.52;;;20.90;78.00;;;;;;5093776;28;20020;-88
2021/05/07 11:32:21;;;;;;;11.38;8.88;;;20.90;78.00;;;;;;5050656;23;20057;-85
2021/05/07 11:35:10;;;;;;;10.45;8.77;;;20.90;78.00;;;;;;4993922;28;20042;-86
2021/05/07 11:37:42;;;;;;;10.75;8.77;;;20.90;78.10;;;;;;4994300;28;20032;-85
2021/05/07 11:40:16;;;;;;;10.90;8.77;;;20.90;78.20;;;;;;4992828;28;20026;-85
2021/05/07 11:42:44;;;;;;;11.63;9.10;;;21.00;78.30;;;;;;4993818;28;20058;-83
2021/05/07 11:45:24;;;;;;;11.88;9.13;;;20.90;78.20;;;;;;4993570;28;20026;-87
2021/05/07 11:47:50;;;;;;;10.02;8.30;;;21.00;78.10;;;;;;4992627;28;20085;-85
2021/05/07 11:50:19;;;;;;;10.73;7.75;;;21.00;78.20;;;;;;4993188;28;20460;-85
2021/05/07 11:52:46;;;;;;;9.63;7.43;;;21.00;78.10;;;;;;4993908;28;20026;-86
2021/05/07 11:55:18;;;;;;;9.57;7.47;;;21.00;78.00;;;;;;4992109;28;20072;-86
2021/05/07 11:57:45;;;;;;;9.77;7.88;;;20.90;78.00;;;;;;4993567;28;20479;-87
2021/05/07 12:00:20;;;;;;;9.73;8.32;;;21.00;78.00;;;;;;4992337;28;20022;-85
2021/05/07 12:02:45;;;;;;;11.45;8.75;;;21.00;78.10;;;;;;4992481;28;20035;-86
2021/05/07 12:05:11;;;;;;;13.15;9.98;;;21.00;78.00;;;;;;4975958;28;20076;-86
2021/05/07 12:07:39;;;;;;;14.68;11.25;;;21.00;78.20;;;;;;4992377;28;20065;-86
2021/05/07 12:10:06;;;;;;;14.73;11.52;;;21.00;78.10;;;;;;4993407;28;20053;-86
2021/05/07 12:12:42;;;;;;;18.92;14.25;;;21.00;78.00;;;;;;4991742;28;20423;-86
2021/05/07 12:15:13;;;;;;;19.15;14.10;;;21.00;77.90;;;;;;4992405;28;20054;-86
2021/05/07 12:17:43;;;;;;;20.48;15.30;;;20.90;77.90;;;;;;4961308;28;20376;-86
2021/05/07 12:20:14;;;;;;;19.75;14.63;;;21.00;77.90;;;;;;4992033;28;20419;-86
2021/05/07 12:22:41;;;;;;;20.35;15.70;;;20.90;77.80;;;;;;4993834;28;20156;-86
2021/05/07 12:25:22;;;;;;;20.17;16.25;;;21.00;77.80;;;;;;4993073;28;20069;-86
2021/05/07 12:27:49;;;;;;;23.38;16.83;;;21.00;77.80;;;;;;4994827;28;20026;-85
2021/05/07 12:30:25;;;;;;;22.25;17.42;;;21.00;77.80;;;;;;4996162;28;20022;-86
2021/05/07 12:33:04;;;;;;;22.98;17.50;;;21.00;77.80;;;;;;4995550;28;20046;-85
2021/05/07 12:35:36;;;;;;;24.85;18.80;;;20.90;77.80;;;;;;4996535;28;20031;-86
2021/05/07 12:38:20;;;;;;;26.42;20.63;;;21.00;77.90;;;;;;4995922;28;20022;-85
2021/05/07 12:40:46;;;;;;;25.88;20.25;;;21.00;77.80;;;;;;4995717;28;20027;-86
2021/05/07 12:43:12;;;;;;;29.95;23.20;;;20.90;77.80;;;;;;4996873;28;20045;-86
2021/05/07 12:45:38;;;;;;;32.30;24.33;;;20.90;77.90;;;;;;4995688;28;20030;-87
2021/05/07 12:48:04;;;;;;;31.52;24.15;;;20.90;77.80;;;;;;4996524;28;20018;-85
2021/05/07 12:50:30;;;;;;;34.30;26.33;;;20.90;77.90;;;;;;4996760;28;20086;-85
2021/05/07 12:52:56;;;;;;;33.85;26.80;;;20.90;77.90;;;;;;4996952;28;20041;-85
2021/05/07 12:55:21;;;;;;;34.40;26.73;;;20.90;77.90;;;;;;4996392;28;20031;-85
2021/05/07 12:57:47;;;;;;;34.97;27.05;;;20.90;78.00;;;;;;4995429;28;20026;-86
2021/05/07 13:00:13;;;;;;;37.00;28.55;;;20.90;78.00;;;;;;4996121;28;20487;-88
2021/05/07 13:02:39;;;;;;;34.33;26.15;;;20.90;78.00;;;;;;4994957;28;20034;-85
2021/05/07 13:05:05;;;;;;;35.10;27.67;;;20.90;78.10;;;;;;4995362;28;20101;-85
2021/05/07 13:07:31;;;;;;;37.67;28.38;;;20.90;78.20;;;;;;4994995;28;20023;-85
2021/05/07 13:09:57;;;;;;;35.22;27.77;;;20.90;78.30;;;;;;4995176;28;20050;-85
2021/05/07 13:12:23;;;;;;;36.45;28.15;;;20.90;78.20;;;;;;4995313;28;20030;-85
2021/05/07 13:14:48;;;;;;;35.50;27.20;;;20.90;78.30;;;;;;4995341;28;20460;-87
2021/05/07 13:17:16;;;;;;;34.28;26.40;;;20.90;78.20;;;;;;4979413;28;20449;-85
2021/05/07 13:19:42;;;;;;;35.05;27.60;;;20.90;78.20;;;;;;4995260;28;20524;-86
2021/05/07 13:22:08;;;;;;;36.15;26.35;;;20.90;78.10;;;;;;4993717;28;20105;-86
2021/05/07 13:24:33;;;;;;;31.98;25.00;;;20.90;78.00;;;;;;4994774;28;20037;-85
2021/05/07 13:26:59;;;;;;;31.80;24.80;;;20.90;78.00;;;;;;4995313;28;20031;-85
2021/05/07 13:29:25;;;;;;;30.10;23.17;;;20.90;78.00;;;;;;4994665;28;20023;-85
2021/05/07 13:31:51;;;;;;;30.42;24.90;;;20.90;78.10;;;;;;4994596;28;20047;-86
2021/05/07 13:34:18;;;;;;;30.50;23.60;;;20.90;78.20;;;;;;4996965;28;20080;-86
2021/05/07 13:36:43;;;;;;;31.92;24.55;;;20.90;78.30;;;;;;4996382;28;20035;-87
2021/05/07 13:39:09;;;;;;;30.42;24.30;;;20.90;78.30;;;;;;4979803;28;20033;-87
2021/05/07 13:41:35;;;;;;;31.30;24.42;;;20.90;78.30;;;;;;4994638;28;20395;-85
2021/05/07 13:44:00;;;;;;;34.45;26.30;;;20.90;78.30;;;;;;4995419;28;20041;-86
2021/05/07 13:46:26;;;;;;;35.30;27.13;;;20.90;78.40;;;;;;4994805;28;20030;-86
2021/05/07 13:48:52;;;;;;;38.95;28.50;;;20.90;78.40;;;;;;4996131;28;20443;-85
2021/05/07 13:51:17;;;;;;;37.50;28.90;;;20.90;78.40;;;;;;4996233;28;20058;-85
2021/05/07 13:53:43;;;;;;;39.10;29.25;;;20.90;78.40;;;;;;4994702;28;20401;-85
2021/05/07 13:56:08;;;;;;;39.28;31.52;;;20.90;78.40;;;;;;4978341;28;20030;-86
2021/05/07 13:58:34;;;;;;;40.30;30.98;;;20.90;78.40;;;;;;4995570;28;20081;-87
2021/05/07 14:01:00;;;;;;;45.85;33.97;;;20.90;78.30;;;;;;4995734;28;20038;-84
2021/05/07 14:03:25;;;;;;;46.72;34.85;;;20.90;78.30;;;;;;4994369;28;20528;-84
2021/05/07 14:05:51;;;;;;;46.92;35.05;;;20.90;78.30;;;;;;4994080;28;20038;-85
2021/05/07 14:08:17;;;;;;;49.05;34.90;;;20.90;78.30;;;;;;4995203;28;20025;-92
2021/05/07 14:10:42;;;;;;;49.75;37.83;;;20.90;78.20;;;;;;4995406;28;20460;-84
2021/05/07 14:13:08;;;;;;;49.45;37.17;;;20.90;78.30;;;;;;4994676;28;20034;-86
2021/05/07 14:15:34;;;;;;;48.83;37.92;;;20.90;78.30;;;;;;4994600;28;20456;-85
2021/05/07 14:18:01;;;;;;;48.25;36.83;;;20.90;78.30;;;;;;4994877;28;20031;-86
2021/05/07 14:20:28;;;;;;;47.20;37.65;;;20.90;78.30;;;;;;4993745;28;20376;-85
2021/05/07 14:22:53;;;;;;;49.65;37.33;;;20.90;78.30;;;;;;4993697;28;20056;-85
2021/05/07 14:25:20;;;;;;;49.92;38.63;;;20.90;78.30;;;;;;4993689;28;20034;-86
2021/05/07 14:27:47;;;;;;;52.38;39.42;;;21.00;78.40;;;;;;4994994;28;20100;-85
2021/05/07 14:30:15;;;;;;;50.38;39.95;;;21.00;78.30;;;;;;4977872;28;20476;-85
2021/05/07 14:32:41;;;;;;;56.67;42.65;;;21.00;78.40;;;;;;4994339;28;20502;-85
2021/05/07 14:35:08;;;;;;;58.28;42.70;;;21.00;78.40;;;;;;4993705;28;20108;-86
2021/05/07 14:37:33;;;;;;;55.28;42.72;;;21.00;78.30;;;;;;4976519;28;20069;-85
2021/05/07 14:39:59;;;;;;;55.67;42.25;;;21.00;78.40;;;;;;4992723;28;20026;-85
2021/05/07 14:42:24;;;;;;;60.72;46.45;;;20.90;78.30;;;;;;4993092;28;20447;-85
2021/05/07 14:44:50;;;;;;;63.72;48.85;;;20.90;78.40;;;;;;4993696;28;20512;-90
2021/05/07 14:47:16;;;;;;;68.10;51.50;;;20.90;78.60;;;;;;4996018;28;20022;-88
2021/05/07 14:49:42;;;;;;;70.55;53.92;;;21.00;78.80;;;;;;4993009;28;20027;-86
2021/05/07 14:52:08;;;;;;;77.50;58.40;;;21.00;78.90;;;;;;4994524;28;20477;-86
2021/05/07 14:54:33;;;;;;;76.03;57.17;;;21.00;79.10;;;;;;4992928;28;20486;-86
2021/05/07 14:56:59;;;;;;;74.25;55.70;;;21.00;79.00;;;;;;4993417;28;20080;-87
2021/05/07 14:59:24;;;;;;;71.75;54.53;;;20.90;78.90;;;;;;4994853;28;20041;-87
2021/05/07 15:01:50;;;;;;;68.93;52.42;;;21.00;78.90;;;;;;4994559;28;20030;-86
2021/05/07 15:04:16;;;;;;;63.00;48.35;;;20.90;78.80;;;;;;4994994;28;20431;-86
2021/05/07 15:06:41;;;;;;;57.00;45.60;;;20.90;78.70;;;;;;4993495;28;20037;-86
2021/05/07 15:09:07;;;;;;;56.35;43.08;;;20.90;78.70;;;;;;4977439;28;20117;-86
2021/05/07 15:11:32;;;;;;;51.70;40.10;;;20.90;78.60;;;;;;4993335;28;20041;-86
2021/05/07 15:13:58;;;;;;;46.90;36.90;;;20.90;78.50;;;;;;4994458;28;20026;-86
2021/05/07 15:16:24;;;;;;;43.17;33.50;;;20.90;78.50;;;;;;4994246;28;20105;-90
2021/05/07 15:18:50;;;;;;;41.10;33.35;;;20.90;78.50;;;;;;4994450;28;20022;-86
2021/05/07 15:21:16;;;;;;;37.80;30.80;;;20.90;78.40;;;;;;4993257;28;20044;-86
2021/05/07 15:23:41;;;;;;;38.55;28.40;;;20.90;78.30;;;;;;4993283;28;20361;-86
2021/05/07 15:26:08;;;;;;;33.95;26.75;;;20.90;78.30;;;;;;4992959;28;20380;-86
2021/05/07 15:28:33;;;;;;;29.83;23.77;;;20.90;78.30;;;;;;4994336;28;20069;-86
2021/05/07 15:30:59;;;;;;;32.58;23.83;;;20.90;78.20;;;;;;4993039;28;20030;-86
2021/05/07 15:33:24;;;;;;;27.75;21.45;;;20.90;78.20;;;;;;4992867;28;20053;-86
2021/05/07 15:35:50;;;;;;;26.35;20.48;;;20.90;78.20;;;;;;4992962;28;20109;-86
2021/05/07 15:38:16;;;;;;;23.42;18.02;;;20.90;78.10;;;;;;4976897;28;20030;-86
2021/05/07 15:40:41;;;;;;;20.40;16.33;;;20.90;78.10;;;;;;4976452;28;20038;-86
2021/05/07 15:43:10;;;;;;;21.73;15.85;;;20.90;78.10;;;;;;4994461;28;20519;-87
2021/05/07 15:45:35;;;;;;;19.50;15.45;;;20.90;78.10;;;;;;4977234;28;20022;-86
2021/05/07 15:48:02;;;;;;;21.15;14.93;;;20.90;78.00;;;;;;4992849;28;20022;-86
2021/05/07 15:50:30;;;;;;;18.38;14.63;;;20.90;77.90;;;;;;4992574;28;20054;-89
2021/05/07 15:52:55;;;;;;;17.17;13.48;;;20.90;77.90;;;;;;4993916;28;20018;-86
2021/05/07 15:55:21;;;;;;;15.07;12.48;;;20.90;77.90;;;;;;4992500;28;20361;-86
2021/05/07 15:57:49;;;;;;;13.70;11.40;;;20.90;77.90;;;;;;4993949;28;20065;-86
2021/05/07 16:00:16;;;;;;;13.68;10.63;;;20.80;77.90;;;;;;4993997;28;20113;-86
2021/05/07 16:02:42;;;;;;;13.07;10.15;;;20.90;77.90;;;;;;4994012;28;20108;-86
2021/05/07 16:05:09;;;;;;;12.13;9.75;;;20.90;78.00;;;;;;4997998;28;20027;-86
2021/05/07 16:07:34;;;;;;;11.45;8.95;;;20.80;77.90;;;;;;4997601;28;20153;-86
2021/05/07 16:10:00;;;;;;;12.02;9.15;;;20.90;78.00;;;;;;4997490;28;20105;-86
2021/05/07 16:12:26;;;;;;;9.75;8.00;;;20.80;77.90;;;;;;4996336;28;20512;-86
2021/05/07 16:14:53;;;;;;;10.23;8.20;;;20.80;78.00;;;;;;4996463;28;20030;-86
2021/05/07 16:17:19;;;;;;;9.20;7.38;;;20.80;78.00;;;;;;4980370;28;20035;-86
2021/05/07 16:19:47;;;;;;;8.63;6.80;;;20.80;78.00;;;;;;4996151;28;20483;-86
2021/05/07 16:22:13;;;;;;;8.88;6.97;;;20.80;78.00;;;;;;4997457;28;20531;-86
2021/05/07 16:24:38;;;;;;;7.70;6.20;;;20.80;78.10;;;;;;4997181;28;20034;-86
2021/05/07 16:27:04;;;;;;;6.63;5.90;;;20.80;78.10;;;;;;4997609;28;20027;-86
2021/05/07 16:29:30;;;;;;;7.82;6.20;;;20.80;78.10;;;;;;4996121;28;20507;-86
2021/05/07 16:31:56;;;;;;;7.68;5.78;;;20.80;78.00;;;;;;4995708;28;20149;-86
2021/05/07 16:34:21;;;;;;;6.97;5.60;;;20.80;78.00;;;;;;4997607;28;20120;-86
2021/05/07 16:36:48;;;;;;;6.28;5.15;;;20.80;78.00;;;;;;4996152;28;20038;-86
2021/05/07 16:39:18;;;;;;;6.63;5.00;;;20.80;78.00;;;;;;4995656;28;20026;-86
2021/05/07 16:41:45;;;;;;;5.88;4.82;;;20.80;78.10;;;;;;4997053;28;20026;-86
2021/05/07 16:44:10;;;;;;;5.82;4.70;;;20.80;78.10;;;;;;4995756;28;20468;-86
2021/05/07 16:46:36;;;;;;;5.00;4.40;;;20.80;78.10;;;;;;4995815;28;20076;-86
2021/05/07 16:49:02;;;;;;;6.22;4.80;;;20.80;78.00;;;;;;4996942;28;20438;-86
2021/05/07 16:51:28;;;;;;;5.90;4.10;;;20.80;78.00;;;;;;4997461;28;20105;-86
2021/05/07 16:53:53;;;;;;;4.88;4.07;;;20.80;78.10;;;;;;4997088;28;20088;-86
2021/05/07 16:56:19;;;;;;;5.28;4.00;;;20.80;78.10;;;;;;4996058;28;20022;-86
2021/05/07 16:58:45;;;;;;;5.40;3.80;;;20.80;78.00;;;;;;4995822;28;20023;-86
2021/05/07 17:01:10;;;;;;;5.50;3.88;;;20.80;78.50;;;;;;4996094;28;20038;-86
2021/05/07 17:03:36;;;;;;;4.40;3.50;;;20.80;78.00;;;;;;4997298;28;20085;-86
2021/05/07 17:06:02;;;;;;;5.25;3.67;;;20.80;78.10;;;;;;4997240;28;20367;-86
2021/05/07 17:08:28;;;;;;;4.47;3.50;;;20.80;78.10;;;;;;4995743;28;20026;-86
2021/05/07 17:10:55;;;;;;;4.38;3.35;;;20.80;78.00;;;;;;4998395;28;20053;-86
2021/05/07 17:13:20;;;;;;;3.97;2.97;;;20.80;78.00;;;;;;4996592;28;20046;-86
2021/05/07 17:15:47;;;;;;;5.10;3.10;;;20.80;78.00;;;;;;4995799;28;20030;-86
2021/05/07 17:18:12;;;;;;;3.75;2.97;;;20.80;78.00;;;;;;4997018;28;20491;-86
2021/05/07 17:20:38;;;;;;;3.88;2.90;;;20.80;77.90;;;;;;4979206;28;20069;-87
2021/05/07 17:23:04;;;;;;;3.90;2.67;;;20.70;77.90;;;;;;4996322;28;20045;-86
2021/05/07 17:25:30;;;;;;;3.75;2.85;;;20.70;77.80;;;;;;4995255;28;20027;-85
2021/05/07 17:27:56;;;;;;;2.90;2.38;;;20.80;77.90;;;;;;4996465;28;20030;-85
2021/05/07 17:30:23;;;;;;;2.85;2.53;;;20.80;77.90;;;;;;4995249;28;20372;-85
2021/05/07 17:32:49;;;;;;;3.17;2.40;;;20.70;77.80;;;;;;4995943;28;20051;-84
2021/05/07 17:35:18;;;;;;;3.08;2.30;;;20.70;77.90;;;;;;4996065;28;20022;-85
2021/05/07 17:37:44;;;;;;;3.03;2.47;;;20.70;78.00;;;;;;4994469;28;20376;-85
2021/05/07 17:40:10;;;;;;;2.60;2.30;;;20.70;77.90;;;;;;4995926;28;20030;-84
2021/05/07 17:42:37;;;;;;;3.40;2.40;;;20.70;78.00;;;;;;4994700;28;20506;-83
2021/05/07 17:45:07;;;;;;;2.50;1.98;;;20.70;78.00;;;;;;4996165;28;20022;-83
2021/05/07 17:47:32;;;;;;;2.45;2.05;;;20.70;78.00;;;;;;4996380;28;20034;-83
2021/05/07 17:49:58;;;;;;;2.83;2.08;;;20.70;78.00;;;;;;4978820;28;20475;-82
2021/05/07 17:52:24;;;;;;;2.15;1.70;;;20.70;78.00;;;;;;4996761;28;20026;-82
2021/05/07 17:54:50;;;;;;;2.10;1.90;;;20.70;78.00;;;;;;4994760;28;20425;-83
2021/05/07 17:57:15;;;;;;;2.63;1.80;;;20.70;78.00;;;;;;4996501;28;20022;-84
2021/05/07 17:59:41;;;;;;;2.85;1.92;;;20.70;78.00;;;;;;4996194;28;20085;-87
2021/05/07 18:02:08;;;;;;;2.13;1.85;;;20.70;78.10;;;;;;4995908;28;20424;-85
2021/05/07 18:04:34;;;;;;;3.15;1.80;;;20.70;78.10;;;;;;4994939;28;20464;-85
2021/05/07 18:06:59;;;;;;;2.42;2.10;;;20.70;78.60;;;;;;4995677;28;20106;-85
2021/05/07 18:09:25;;;;;;;2.03;1.70;;;20.70;78.10;;;;;;4995971;28;20026;-85
2021/05/07 18:11:51;;;;;;;2.40;1.70;;;20.70;78.10;;;;;;4994620;28;20034;-85
2021/05/07 18:14:17;;;;;;;2.33;1.77;;;20.70;78.00;;;;;;4978280;28;20031;-84
2021/05/07 18:16:45;;;;;;;2.63;1.70;;;20.70;78.10;;;;;;4995389;28;20080;-89
2021/05/07 18:19:11;;;;;;;2.33;2.00;;;20.70;78.00;;;;;;4994260;28;20475;-85
2021/05/07 18:21:37;;;;;;;2.13;1.67;;;20.70;78.10;;;;;;4994527;28;20124;-85
2021/05/07 18:24:05;;;;;;;2.42;1.80;;;20.70;78.10;;;;;;4995150;28;20030;-85
2021/05/07 18:26:31;;;;;;;2.55;1.40;;;20.70;78.10;;;;;;4994504;28;20480;-84
2021/05/07 18:28:56;;;;;;;2.20;1.70;;;20.70;78.10;;;;;;4993711;28;20132;-85
2021/05/07 18:31:22;;;;;;;2.10;1.65;;;20.70;78.10;;;;;;4995249;28;20164;-85
2021/05/07 18:33:48;;;;;;;2.10;1.77;;;20.60;78.10;;;;;;4977499;28;20053;-86
2021/05/07 18:36:14;;;;;;;2.67;1.73;;;20.60;78.00;;;;;;4993892;28;20144;-85
2021/05/07 18:38:39;;;;;;;2.13;1.65;;;20.60;78.10;;;;;;4995047;28;20357;-85
2021/05/07 18:41:05;;;;;;;2.72;1.70;;;20.60;78.10;;;;;;4977356;28;20126;-85
2021/05/07 18:43:31;;;;;;;2.67;2.15;;;20.60;78.10;;;;;;4995270;28;20045;-85
2021/05/07 18:45:57;;;;;;;2.00;1.67;;;20.60;78.10;;;;;;4993620;28;20464;-86
2021/05/07 18:48:22;;;;;;;2.20;1.70;;;20.60;78.10;;;;;;4977447;28;20022;-85
2021/05/07 18:50:49;;;;;;;2.45;1.90;;;20.60;78.20;;;;;;4993560;28;20030;-86
2021/05/07 18:53:15;;;;;;;1.85;1.63;;;20.60;78.20;;;;;;4993567;28;20528;-84
2021/05/07 18:55:43;;;;;;;4.25;1.80;;;20.60;78.20;;;;;;4993575;28;20023;-84
2021/05/07 18:58:08;;;;;;;2.45;1.70;;;20.60;78.20;;;;;;4994544;28;20068;-85
2021/05/07 19:00:34;;;;;;;3.22;2.05;;;20.60;78.20;;;;;;4993331;28;20066;-85
2021/05/07 19:03:00;;;;;;;2.58;1.88;;;20.60;78.20;;;;;;4994359;28;20498;-86
2021/05/07 19:05:27;;;;;;;4.10;1.95;;;20.60;78.30;;;;;;4994429;28;20034;-85
2021/05/07 19:07:53;;;;;;;2.45;1.77;;;20.60;78.30;;;;;;4994530;28;20454;-84
2021/05/07 19:10:19;;;;;;;1.98;1.63;;;20.60;78.30;;;;;;4993486;28;20022;-85
2021/05/07 19:12:45;;;;;;;2.10;1.88;;;20.60;78.40;;;;;;4994369;28;20126;-85
2021/05/07 19:15:12;;;;;;;3.50;1.98;;;20.60;78.40;;;;;;4993460;28;20033;-86
2021/05/07 19:17:38;;;;;;;1.88;1.60;;;20.60;78.40;;;;;;4994213;28;20042;-85
2021/05/07 19:20:04;;;;;;;1.88;1.63;;;20.60;78.40;;;;;;4994680;28;20031;-85
2021/05/07 19:22:30;;;;;;;2.03;1.60;;;20.50;78.40;;;;;;4976886;28;20038;-85
2021/05/07 19:24:56;;;;;;;2.03;1.85;;;20.50;78.40;;;;;;4994475;28;20034;-84
2021/05/07 19:27:21;;;;;;;1.75;1.50;;;20.50;78.40;;;;;;4993150;28;20499;-84
2021/05/07 19:29:47;;;;;;;2.22;1.88;;;20.50;78.40;;;;;;4994370;28;20028;-84
2021/05/07 19:32:13;;;;;;;2.65;1.80;;;20.50;78.40;;;;;;4992633;28;20535;-84
2021/05/07 19:34:39;;;;;;;2.00;1.80;;;20.50;78.50;;;;;;4993714;28;20088;-84
2021/05/07 19:37:05;;;;;;;2.55;1.65;;;20.50;78.50;;;;;;4992615;28;20054;-85
2021/05/07 19:39:32;;;;;;;2.65;1.90;;;20.50;78.50;;;;;;4976685;28;20037;-84
2021/05/07 19:41:58;;;;;;;2.08;1.63;;;20.50;78.50;;;;;;4993941;28;20081;-86
2021/05/07 19:44:24;;;;;;;2.33;1.85;;;20.50;78.50;;;;;;4993301;28;20023;-86
2021/05/07 19:46:51;;;;;;;1.77;1.40;;;20.50;78.60;;;;;;4994137;28;20053;-85
2021/05/07 19:49:17;;;;;;;2.13;1.67;;;20.50;78.60;;;;;;4976459;28;20057;-86
2021/05/07 19:51:43;;;;;;;2.92;2.00;;;20.50;78.60;;;;;;4993091;28;20026;-86
2021/05/07 19:54:09;;;;;;;2.47;2.20;;;20.50;78.70;;;;;;4992560;28;20042;-85
2021/05/07 19:56:35;;;;;;;2.45;2.25;;;20.50;78.70;;;;;;4992601;28;20098;-84
2021/05/07 19:59:07;;;;;;;3.42;2.72;;;20.50;78.80;;;;;;4993642;28;20070;-84
2021/05/07 20:01:35;;;;;;;3.38;3.08;;;20.50;78.70;;;;;;4993524;28;20072;-85
2021/05/07 20:04:01;;;;;;;5.07;3.85;;;20.50;79.30;;;;;;4992397;28;20029;-84
2021/05/07 20:06:30;;;;;;;5.13;4.07;;;20.50;78.80;;;;;;4992831;28;20033;-85
2021/05/07 20:08:56;;;;;;;6.53;5.18;;;20.50;78.90;;;;;;4993510;28;20046;-85
2021/05/07 20:11:22;;;;;;;6.90;5.25;;;20.50;78.90;;;;;;4992502;28;20445;-84
2021/05/07 20:13:47;;;;;;;9.02;6.20;;;20.50;79.00;;;;;;4991103;28;20030;-84
2021/05/07 20:16:13;;;;;;;7.07;5.90;;;20.50;79.00;;;;;;4993253;28;20026;-86
2021/05/07 20:18:39;;;;;;;7.93;6.57;;;20.50;79.00;;;;;;4993027;28;20022;-85